sensor_id;sensor_type;location;lat;lon;timestamp;temperature;humidity
52181;DHT22;38158;53.338;6.514;2023-04-01T00:00:18;10.10;99.90
52181;DHT22;38158;53.338;6.514;2023-04-01T00:02:44;9.80;99.90
52181;DHT22;38158;53.338;6.514;2023-04-01T00:05:10;9.70;99.90
52181;DHT22;38158;53.338;6.514;2023-04-01T00:07:38;9.70;99.90
52181;DHT22;38158;53.338;6.514;2023-04-01T00:10:08;9.70;99.90
52181;DHT22;38158;53.338;6.514;2023-04-01T00:12:34;9.70;99.90
52181;DHT22;38158;53.338;6.514;2023-04-01T00:15:00;9.70;99.90
52181;DHT22;38158;53.338;6.514;2023-04-01T00:17:26;9.70;99.90
52181;DHT22;38158;53.338;6.514;2023-04-01T00:19:55;9.70;99.90
52181;DHT22;38158;53.338;6.514;2023-04-01T00:22:20;9.70;99.90
52181;DHT22;38158;53.338;6.514;2023-04-01T00:24:47;9.70;99.90
52181;DHT22;38158;53.338;6.514;2023-04-01T00:27:13;9.70;99.90
52181;DHT22;38158;53.338;6.514;2023-04-01T00:29:42;9.70;99.90
52181;DHT22;38158;53.338;6.514;2023-04-01T00:32:08;9.70;99.90
52181;DHT22;38158;53.338;6.514;2023-04-01T00:34:34;9.70;99.90
52181;DHT22;38158;53.338;6.514;2023-04-01T00:37:00;9.70;99.90
52181;DHT22;38158;53.338;6.514;2023-04-01T00:39:28;9.70;99.90
52181;DHT22;38158;53.338;6.514;2023-04-01T00:41:54;9.70;99.90
52181;DHT22;38158;53.338;6.514;2023-04-01T00:44:26;9.70;99.90
52181;DHT22;38158;53.338;6.514;2023-04-01T00:46:52;9.70;99.90
52181;DHT22;38158;53.338;6.514;2023-04-01T00:49:20;9.60;99.90
52181;DHT22;38158;53.338;6.514;2023-04-01T00:51:51;9.70;99.90
52181;DHT22;38158;53.338;6.514;2023-04-01T00:54:19;9.70;99.90
52181;DHT22;38158;53.338;6.514;2023-04-01T00:56:57;9.60;99.90
52181;DHT22;38158;53.338;6.514;2023-04-01T00:59:27;9.70;99.90
52181;DHT22;38158;53.338;6.514;2023-04-01T01:01:55;9.60;99.90
52181;DHT22;38158;53.338;6.514;2023-04-01T01:13:02;9.60;99.90
52181;DHT22;38158;53.338;6.514;2023-04-01T01:35:03;9.50;99.90
52181;DHT22;38158;53.338;6.514;2023-04-01T01:37:30;9.50;99.90
52181;DHT22;38158;53.338;6.514;2023-04-01T01:40:00;9.50;99.90
52181;DHT22;38158;53.338;6.514;2023-04-01T01:42:29;9.50;99.90
52181;DHT22;38158;53.338;6.514;2023-04-01T01:44:58;9.50;99.90
52181;DHT22;38158;53.338;6.514;2023-04-01T01:47:26;9.50;99.90
52181;DHT22;38158;53.338;6.514;2023-04-01T01:49:54;9.50;99.90
52181;DHT22;38158;53.338;6.514;2023-04-01T01:52:21;9.50;99.90
52181;DHT22;38158;53.338;6.514;2023-04-01T01:54:52;9.50;99.90
52181;DHT22;38158;53.338;6.514;2023-04-01T01:57:28;9.50;99.90
52181;DHT22;38158;53.338;6.514;2023-04-01T01:59:58;9.50;99.90
52181;DHT22;38158;53.338;6.514;2023-04-01T02:02:26;9.50;99.90
52181;DHT22;38158;53.338;6.514;2023-04-01T02:04:57;9.60;99.90
52181;DHT22;38158;53.338;6.514;2023-04-01T02:07:31;9.50;99.90
52181;DHT22;38158;53.338;6.514;2023-04-01T02:09:58;9.60;99.90
52181;DHT22;38158;53.338;6.514;2023-04-01T02:12:24;9.60;99.90
52181;DHT22;38158;53.338;6.514;2023-04-01T02:14:59;9.50;99.90
52181;DHT22;38158;53.338;6.514;2023-04-01T02:17:29;9.50;99.90
52181;DHT22;38158;53.338;6.514;2023-04-01T02:20:00;9.50;99.90
52181;DHT22;38158;53.338;6.514;2023-04-01T02:22:29;9.60;99.90
52181;DHT22;38158;53.338;6.514;2023-04-01T02:25:12;9.50;99.90
52181;DHT22;38158;53.338;6.514;2023-04-01T02:27:39;9.50;99.90
52181;DHT22;38158;53.338;6.514;2023-04-01T02:30:05;9.50;99.90
52181;DHT22;38158;53.338;6.514;2023-04-01T02:32:33;9.50;99.90
52181;DHT22;38158;53.338;6.514;2023-04-01T02:35:01;9.50;99.90
52181;DHT22;38158;53.338;6.514;2023-04-01T02:37:31;9.50;99.90
52181;DHT22;38158;53.338;6.514;2023-04-01T02:40:05;9.50;99.90
52181;DHT22;38158;53.338;6.514;2023-04-01T02:42:33;9.50;99.90
52181;DHT22;38158;53.338;6.514;2023-04-01T02:44:58;9.60;99.90
52181;DHT22;38158;53.338;6.514;2023-04-01T02:47:25;9.60;99.90
52181;DHT22;38158;53.338;6.514;2023-04-01T02:49:50;9.60;99.90
52181;DHT22;38158;53.338;6.514;2023-04-01T02:52:16;9.60;99.90
52181;DHT22;38158;53.338;6.514;2023-04-01T02:54:43;9.50;99.90
52181;DHT22;38158;53.338;6.514;2023-04-01T02:57:08;9.50;99.90
52181;DHT22;38158;53.338;6.514;2023-04-01T02:59:34;9.50;99.90
52181;DHT22;38158;53.338;6.514;2023-04-01T03:02:00;9.50;99.90
52181;DHT22;38158;53.338;6.514;2023-04-01T03:04:26;9.50;99.90
52181;DHT22;38158;53.338;6.514;2023-04-01T03:06:51;9.50;99.90
52181;DHT22;38158;53.338;6.514;2023-04-01T03:09:17;9.60;99.90
52181;DHT22;38158;53.338;6.514;2023-04-01T03:11:43;9.50;99.90
52181;DHT22;38158;53.338;6.514;2023-04-01T03:14:08;9.60;99.90
52181;DHT22;38158;53.338;6.514;2023-04-01T03:16:34;9.50;99.90
52181;DHT22;38158;53.338;6.514;2023-04-01T03:19:00;9.50;99.90
52181;DHT22;38158;53.338;6.514;2023-04-01T03:21:27;9.50;99.90
52181;DHT22;38158;53.338;6.514;2023-04-01T03:23:53;9.50;99.90
52181;DHT22;38158;53.338;6.514;2023-04-01T03:26:19;9.50;99.90
52181;DHT22;38158;53.338;6.514;2023-04-01T03:28:45;9.50;99.90
52181;DHT22;38158;53.338;6.514;2023-04-01T03:31:10;9.50;99.90
52181;DHT22;38158;53.338;6.514;2023-04-01T03:33:36;9.50;99.90
52181;DHT22;38158;53.338;6.514;2023-04-01T03:36:03;9.50;99.90
52181;DHT22;38158;53.338;6.514;2023-04-01T03:38:33;9.50;99.90
52181;DHT22;38158;53.338;6.514;2023-04-01T03:40:58;9.50;99.90
52181;DHT22;38158;53.338;6.514;2023-04-01T03:43:24;9.50;99.90
52181;DHT22;38158;53.338;6.514;2023-04-01T03:45:51;9.50;99.90
52181;DHT22;38158;53.338;6.514;2023-04-01T03:48:17;9.50;99.90
52181;DHT22;38158;53.338;6.514;2023-04-01T03:50:43;9.50;99.90
52181;DHT22;38158;53.338;6.514;2023-04-01T03:53:10;9.50;99.90
52181;DHT22;38158;53.338;6.514;2023-04-01T03:55:36;9.50;99.90
52181;DHT22;38158;53.338;6.514;2023-04-01T03:58:03;9.50;99.90
52181;DHT22;38158;53.338;6.514;2023-04-01T04:00:29;9.50;99.90
52181;DHT22;38158;53.338;6.514;2023-04-01T04:02:55;9.50;99.90
52181;DHT22;38158;53.338;6.514;2023-04-01T04:05:23;9.50;99.90
52181;DHT22;38158;53.338;6.514;2023-04-01T04:07:49;9.50;99.90
52181;DHT22;38158;53.338;6.514;2023-04-01T04:10:15;9.50;99.90
52181;DHT22;38158;53.338;6.514;2023-04-01T04:12:40;9.50;99.90
52181;DHT22;38158;53.338;6.514;2023-04-01T04:15:07;9.50;99.90
52181;DHT22;38158;53.338;6.514;2023-04-01T04:17:33;9.50;99.90
52181;DHT22;38158;53.338;6.514;2023-04-01T04:19:59;9.50;99.90
52181;DHT22;38158;53.338;6.514;2023-04-01T04:22:25;9.50;99.90
52181;DHT22;38158;53.338;6.514;2023-04-01T04:24:50;9.50;99.90
52181;DHT22;38158;53.338;6.514;2023-04-01T04:27:16;9.50;99.90
52181;DHT22;38158;53.338;6.514;2023-04-01T04:29:42;9.50;99.90
52181;DHT22;38158;53.338;6.514;2023-04-01T04:32:08;9.50;99.90
52181;DHT22;38158;53.338;6.514;2023-04-01T04:34:34;9.50;99.90
52181;DHT22;38158;53.338;6.514;2023-04-01T04:36:59;9.50;99.90
52181;DHT22;38158;53.338;6.514;2023-04-01T04:39:25;9.50;99.90
52181;DHT22;38158;53.338;6.514;2023-04-01T04:41:51;9.50;99.90
52181;DHT22;38158;53.338;6.514;2023-04-01T04:44:17;9.50;99.90
52181;DHT22;38158;53.338;6.514;2023-04-01T04:46:42;9.50;99.90
52181;DHT22;38158;53.338;6.514;2023-04-01T04:49:09;9.50;99.90
52181;DHT22;38158;53.338;6.514;2023-04-01T04:51:35;9.50;99.90
52181;DHT22;38158;53.338;6.514;2023-04-01T04:54:02;9.50;99.90
52181;DHT22;38158;53.338;6.514;2023-04-01T04:56:28;9.50;99.90
52181;DHT22;38158;53.338;6.514;2023-04-01T04:58:54;9.50;99.90
52181;DHT22;38158;53.338;6.514;2023-04-01T05:01:20;9.50;99.90
52181;DHT22;38158;53.338;6.514;2023-04-01T05:03:46;9.50;99.90
52181;DHT22;38158;53.338;6.514;2023-04-01T05:06:14;9.50;99.90
52181;DHT22;38158;53.338;6.514;2023-04-01T05:08:41;9.50;99.90
52181;DHT22;38158;53.338;6.514;2023-04-01T05:11:13;9.50;99.90
52181;DHT22;38158;53.338;6.514;2023-04-01T05:13:40;9.50;99.90
52181;DHT22;38158;53.338;6.514;2023-04-01T05:16:10;9.50;99.90
52181;DHT22;38158;53.338;6.514;2023-04-01T05:18:36;9.50;99.90
52181;DHT22;38158;53.338;6.514;2023-04-01T05:21:02;9.50;99.90
52181;DHT22;38158;53.338;6.514;2023-04-01T05:23:28;9.50;99.90
52181;DHT22;38158;53.338;6.514;2023-04-01T05:25:53;9.50;99.90
52181;DHT22;38158;53.338;6.514;2023-04-01T05:28:20;9.50;99.90
52181;DHT22;38158;53.338;6.514;2023-04-01T05:30:46;9.50;99.90
52181;DHT22;38158;53.338;6.514;2023-04-01T05:33:12;9.50;99.90
52181;DHT22;38158;53.338;6.514;2023-04-01T05:35:39;9.50;99.90
52181;DHT22;38158;53.338;6.514;2023-04-01T05:38:05;9.50;99.90
52181;DHT22;38158;53.338;6.514;2023-04-01T05:40:31;9.50;99.90
52181;DHT22;38158;53.338;6.514;2023-04-01T05:42:58;9.50;99.90
52181;DHT22;38158;53.338;6.514;2023-04-01T05:45:24;9.50;99.90
52181;DHT22;38158;53.338;6.514;2023-04-01T05:47:50;9.50;99.90
52181;DHT22;38158;53.338;6.514;2023-04-01T05:50:16;9.50;99.90
52181;DHT22;38158;53.338;6.514;2023-04-01T05:52:42;9.50;99.90
52181;DHT22;38158;53.338;6.514;2023-04-01T05:55:08;9.60;99.90
52181;DHT22;38158;53.338;6.514;2023-04-01T05:57:33;9.60;99.90
52181;DHT22;38158;53.338;6.514;2023-04-01T05:59:59;9.60;99.90
52181;DHT22;38158;53.338;6.514;2023-04-01T06:02:25;9.60;99.90
52181;DHT22;38158;53.338;6.514;2023-04-01T06:05:30;9.60;99.90
52181;DHT22;38158;53.338;6.514;2023-04-01T06:07:52;9.60;99.90
52181;DHT22;38158;53.338;6.514;2023-04-01T06:10:21;9.70;99.90
52181;DHT22;38158;53.338;6.514;2023-04-01T06:13:21;9.70;99.90
52181;DHT22;38158;53.338;6.514;2023-04-01T06:16:07;9.70;99.90
52181;DHT22;38158;53.338;6.514;2023-04-01T06:21:23;9.80;99.90
52181;DHT22;38158;53.338;6.514;2023-04-01T06:27:21;9.80;99.90
52181;DHT22;38158;53.338;6.514;2023-04-01T06:32:20;9.90;99.90
52181;DHT22;38158;53.338;6.514;2023-04-01T06:51:39;10.00;99.90
52181;DHT22;38158;53.338;6.514;2023-04-01T06:54:14;10.00;99.90
52181;DHT22;38158;53.338;6.514;2023-04-01T06:56:44;10.00;99.90
52181;DHT22;38158;53.338;6.514;2023-04-01T07:01:45;10.10;99.90
52181;DHT22;38158;53.338;6.514;2023-04-01T07:04:16;10.10;99.90
52181;DHT22;38158;53.338;6.514;2023-04-01T07:06:48;10.10;99.90
52181;DHT22;38158;53.338;6.514;2023-04-01T07:09:26;10.10;99.90
52181;DHT22;38158;53.338;6.514;2023-04-01T07:11:56;10.20;99.90
52181;DHT22;38158;53.338;6.514;2023-04-01T07:14:29;10.30;99.90
52181;DHT22;38158;53.338;6.514;2023-04-01T07:17:08;10.30;99.90
52181;DHT22;38158;53.338;6.514;2023-04-01T07:24:50;10.40;99.90
52181;DHT22;38158;53.338;6.514;2023-04-01T07:27:16;10.40;99.90
52181;DHT22;38158;53.338;6.514;2023-04-01T07:29:42;10.40;99.90
52181;DHT22;38158;53.338;6.514;2023-04-01T07:46:02;10.20;99.90
52181;DHT22;38158;53.338;6.514;2023-04-01T07:51:27;10.10;99.90
52181;DHT22;38158;53.338;6.514;2023-04-01T07:54:11;10.10;99.90
52181;DHT22;38158;53.338;6.514;2023-04-01T08:16:22;10.10;99.90
52181;DHT22;38158;53.338;6.514;2023-04-01T08:21:48;10.10;99.90
52181;DHT22;38158;53.338;6.514;2023-04-01T08:24:33;10.00;99.90
52181;DHT22;38158;53.338;6.514;2023-04-01T08:27:03;9.90;99.90
52181;DHT22;38158;53.338;6.514;2023-04-01T08:29:46;9.90;99.90
52181;DHT22;38158;53.338;6.514;2023-04-01T08:32:39;9.90;99.90
52181;DHT22;38158;53.338;6.514;2023-04-01T08:35:28;9.90;99.90
52181;DHT22;38158;53.338;6.514;2023-04-01T08:38:00;10.00;99.90
52181;DHT22;38158;53.338;6.514;2023-04-01T08:49:14;10.00;99.90
52181;DHT22;38158;53.338;6.514;2023-04-01T08:51:53;9.90;99.90
52181;DHT22;38158;53.338;6.514;2023-04-01T08:54:42;9.90;99.90
52181;DHT22;38158;53.338;6.514;2023-04-01T09:02:51;9.90;99.90
52181;DHT22;38158;53.338;6.514;2023-04-01T09:14:23;9.90;99.90
52181;DHT22;38158;53.338;6.514;2023-04-01T09:17:06;9.90;99.90
52181;DHT22;38158;53.338;6.514;2023-04-01T09:47:28;9.60;99.90
52181;DHT22;38158;53.338;6.514;2023-04-01T10:18:01;9.50;99.90
52181;DHT22;38158;53.338;6.514;2023-04-01T10:55:14;9.80;99.90
52181;DHT22;38158;53.338;6.514;2023-04-01T10:57:53;9.80;99.90
52181;DHT22;38158;53.338;6.514;2023-04-01T11:00:46;9.80;99.90
52181;DHT22;38158;53.338;6.514;2023-04-01T11:33:28;9.90;99.90
52181;DHT22;38158;53.338;6.514;2023-04-01T11:44:22;10.10;99.90
52181;DHT22;38158;53.338;6.514;2023-04-01T11:47:44;10.20;99.90
52181;DHT22;38158;53.338;6.514;2023-04-01T11:53:14;10.10;99.90
52181;DHT22;38158;53.338;6.514;2023-04-01T12:09:21;10.10;99.90
52181;DHT22;38158;53.338;6.514;2023-04-01T12:15:08;10.10;99.90
52181;DHT22;38158;53.338;6.514;2023-04-01T12:20:30;10.20;99.90
52181;DHT22;38158;53.338;6.514;2023-04-01T12:23:03;10.20;99.90
52181;DHT22;38158;53.338;6.514;2023-04-01T12:28:29;10.20;99.90
52181;DHT22;38158;53.338;6.514;2023-04-01T12:31:23;10.20;99.90
52181;DHT22;38158;53.338;6.514;2023-04-01T12:36:50;10.10;99.90
52181;DHT22;38158;53.338;6.514;2023-04-01T12:55:46;10.20;99.90
52181;DHT22;38158;53.338;6.514;2023-04-01T12:58:24;10.10;99.90
52181;DHT22;38158;53.338;6.514;2023-04-01T13:15:30;10.00;99.90
52181;DHT22;38158;53.338;6.514;2023-04-01T13:18:43;10.00;99.90
52181;DHT22;38158;53.338;6.514;2023-04-01T13:21:13;9.90;99.90
52181;DHT22;38158;53.338;6.514;2023-04-01T13:29:32;9.70;99.90
52181;DHT22;38158;53.338;6.514;2023-04-01T14:22:24;9.30;99.90
52181;DHT22;38158;53.338;6.514;2023-04-01T14:38:59;8.90;99.90
52181;DHT22;38158;53.338;6.514;2023-04-01T14:41:48;8.80;99.90
52181;DHT22;38158;53.338;6.514;2023-04-01T14:50:18;8.60;99.90
52181;DHT22;38158;53.338;6.514;2023-04-01T14:58:17;8.60;99.90
52181;DHT22;38158;53.338;6.514;2023-04-01T15:00:53;8.50;99.90
52181;DHT22;38158;53.338;6.514;2023-04-01T15:03:33;8.60;99.90
52181;DHT22;38158;53.338;6.514;2023-04-01T15:08:51;8.50;99.90
52181;DHT22;38158;53.338;6.514;2023-04-01T15:11:22;8.50;99.90
52181;DHT22;38158;53.338;6.514;2023-04-01T15:30:32;8.20;99.90
52181;DHT22;38158;53.338;6.514;2023-04-01T15:41:39;7.90;99.90
52181;DHT22;38158;53.338;6.514;2023-04-01T15:46:57;7.80;99.90
52181;DHT22;38158;53.338;6.514;2023-04-01T15:52:03;7.80;99.90
52181;DHT22;38158;53.338;6.514;2023-04-01T15:57:43;7.70;99.90
52181;DHT22;38158;53.338;6.514;2023-04-01T16:02:48;7.60;99.90
52181;DHT22;38158;53.338;6.514;2023-04-01T16:13:48;7.60;99.90
52181;DHT22;38158;53.338;6.514;2023-04-01T16:23:01;7.50;99.90
52181;DHT22;38158;53.338;6.514;2023-04-01T16:28:30;7.40;99.90
52181;DHT22;38158;53.338;6.514;2023-04-01T16:44:54;7.40;99.90
52181;DHT22;38158;53.338;6.514;2023-04-01T16:47:39;7.30;99.90
52181;DHT22;38158;53.338;6.514;2023-04-01T16:53:17;7.20;99.90
52181;DHT22;38158;53.338;6.514;2023-04-01T16:58:33;7.20;99.90
52181;DHT22;38158;53.338;6.514;2023-04-01T17:01:12;7.20;99.90
52181;DHT22;38158;53.338;6.514;2023-04-01T17:03:44;7.20;99.90
52181;DHT22;38158;53.338;6.514;2023-04-01T17:14:44;7.10;99.90
52181;DHT22;38158;53.338;6.514;2023-04-01T17:22:44;6.90;99.90
52181;DHT22;38158;53.338;6.514;2023-04-01T17:25:35;6.90;99.90
52181;DHT22;38158;53.338;6.514;2023-04-01T17:33:29;6.80;99.90
52181;DHT22;38158;53.338;6.514;2023-04-01T17:54:50;6.60;99.90
52181;DHT22;38158;53.338;6.514;2023-04-01T18:00:26;6.50;99.90
52181;DHT22;38158;53.338;6.514;2023-04-01T18:08:56;6.60;99.90
52181;DHT22;38158;53.338;6.514;2023-04-01T18:11:38;6.50;99.90
52181;DHT22;38158;53.338;6.514;2023-04-01T18:14:28;6.50;99.90
52181;DHT22;38158;53.338;6.514;2023-04-01T18:17:16;6.50;99.90
52181;DHT22;38158;53.338;6.514;2023-04-01T18:22:57;6.50;99.90
52181;DHT22;38158;53.338;6.514;2023-04-01T18:25:39;6.40;99.90
52181;DHT22;38158;53.338;6.514;2023-04-01T18:31:05;6.40;99.90
52181;DHT22;38158;53.338;6.514;2023-04-01T18:36:57;6.30;99.90
52181;DHT22;38158;53.338;6.514;2023-04-01T18:39:37;6.30;99.90
52181;DHT22;38158;53.338;6.514;2023-04-01T18:48:11;6.20;99.90
52181;DHT22;38158;53.338;6.514;2023-04-01T18:50:47;6.20;99.90
52181;DHT22;38158;53.338;6.514;2023-04-01T18:58:59;6.10;99.90
52181;DHT22;38158;53.338;6.514;2023-04-01T19:04:12;6.20;99.90
52181;DHT22;38158;53.338;6.514;2023-04-01T19:17:16;6.20;99.90
52181;DHT22;38158;53.338;6.514;2023-04-01T19:25:21;6.10;99.90
52181;DHT22;38158;53.338;6.514;2023-04-01T19:28:16;6.00;99.90
52181;DHT22;38158;53.338;6.514;2023-04-01T19:30:57;6.10;99.90
52181;DHT22;38158;53.338;6.514;2023-04-01T19:36:00;6.00;99.90
52181;DHT22;38158;53.338;6.514;2023-04-01T19:38:38;5.90;99.90
52181;DHT22;38158;53.338;6.514;2023-04-01T19:41:36;5.90;99.90
52181;DHT22;38158;53.338;6.514;2023-04-01T19:52:52;5.90;99.90
52181;DHT22;38158;53.338;6.514;2023-04-01T19:55:46;5.90;99.90
52181;DHT22;38158;53.338;6.514;2023-04-01T20:00:51;5.80;99.90
52181;DHT22;38158;53.338;6.514;2023-04-01T20:03:47;5.80;99.90
52181;DHT22;38158;53.338;6.514;2023-04-01T20:06:26;5.80;99.90
52181;DHT22;38158;53.338;6.514;2023-04-01T20:09:20;5.80;99.90
52181;DHT22;38158;53.338;6.514;2023-04-01T20:14:40;5.70;99.90
52181;DHT22;38158;53.338;6.514;2023-04-01T20:20:19;5.80;99.90
52181;DHT22;38158;53.338;6.514;2023-04-01T20:25:19;5.80;99.90
52181;DHT22;38158;53.338;6.514;2023-04-01T20:30:47;5.80;99.90
52181;DHT22;38158;53.338;6.514;2023-04-01T20:39:18;5.80;99.90
52181;DHT22;38158;53.338;6.514;2023-04-01T20:44:34;5.70;99.90
52181;DHT22;38158;53.338;6.514;2023-04-01T20:52:40;5.60;99.90
52181;DHT22;38158;53.338;6.514;2023-04-01T20:58:29;5.60;99.90
52181;DHT22;38158;53.338;6.514;2023-04-01T21:01:16;5.50;99.90
52181;DHT22;38158;53.338;6.514;2023-04-01T21:04:04;5.50;99.90
52181;DHT22;38158;53.338;6.514;2023-04-01T21:15:09;5.40;99.90
52181;DHT22;38158;53.338;6.514;2023-04-01T21:18:00;5.40;99.90
52181;DHT22;38158;53.338;6.514;2023-04-01T21:26:04;5.40;99.90
52181;DHT22;38158;53.338;6.514;2023-04-01T21:45:44;5.40;99.90
52181;DHT22;38158;53.338;6.514;2023-04-01T21:51:50;5.30;99.90
52181;DHT22;38158;53.338;6.514;2023-04-01T22:07:02;5.20;99.90
52181;DHT22;38158;53.338;6.514;2023-04-01T22:09:36;5.10;99.90
52181;DHT22;38158;53.338;6.514;2023-04-01T22:12:18;5.10;99.90
52181;DHT22;38158;53.338;6.514;2023-04-01T22:17:54;5.10;99.90
52181;DHT22;38158;53.338;6.514;2023-04-01T22:20:44;5.00;99.90
52181;DHT22;38158;53.338;6.514;2023-04-01T22:28:32;4.80;99.90
52181;DHT22;38158;53.338;6.514;2023-04-01T22:31:03;4.70;99.90
52181;DHT22;38158;53.338;6.514;2023-04-01T22:43:55;4.50;99.90
52181;DHT22;38158;53.338;6.514;2023-04-01T22:49:50;4.40;99.90
52181;DHT22;38158;53.338;6.514;2023-04-01T22:55:01;4.20;99.90
52181;DHT22;38158;53.338;6.514;2023-04-01T22:57:41;4.50;99.90
52181;DHT22;38158;53.338;6.514;2023-04-01T23:00:24;4.10;99.90
52181;DHT22;38158;53.338;6.514;2023-04-01T23:03:20;3.90;99.90
52181;DHT22;38158;53.338;6.514;2023-04-01T23:05:58;3.90;99.90
52181;DHT22;38158;53.338;6.514;2023-04-01T23:09:01;3.90;99.90
52181;DHT22;38158;53.338;6.514;2023-04-01T23:11:33;3.80;99.90
52181;DHT22;38158;53.338;6.514;2023-04-01T23:16:40;3.70;99.90
52181;DHT22;38158;53.338;6.514;2023-04-01T23:19:16;3.70;99.90
52181;DHT22;38158;53.338;6.514;2023-04-01T23:33:23;3.50;99.90
52181;DHT22;38158;53.338;6.514;2023-04-01T23:35:57;3.50;99.90
52181;DHT22;38158;53.338;6.514;2023-04-01T23:38:36;3.40;99.90
52181;DHT22;38158;53.338;6.514;2023-04-01T23:41:04;3.30;99.90
52181;DHT22;38158;53.338;6.514;2023-04-01T23:43:33;3.30;99.90
52181;DHT22;38158;53.338;6.514;2023-04-01T23:46:02;3.30;99.90
52181;DHT22;38158;53.338;6.514;2023-04-01T23:48:43;3.50;99.90
52181;DHT22;38158;53.338;6.514;2023-04-01T23:51:28;3.50;99.90
52181;DHT22;38158;53.338;6.514;2023-04-01T23:54:17;3.20;99.90
52181;DHT22;38158;53.338;6.514;2023-04-01T23:56:50;3.20;99.90
52181;DHT22;38158;53.338;6.514;2023-04-01T23:59:29;3.20;99.90
